Southaven, MS

10:40 AM CDT en Abril 26, 2015 (GMT -0500)
Tunica | | Change Station
CLOSE
Current Station
Aeropuerto
Location: Tunica,
Altura: 194 ft
Estaciones meteorológicas cercanas
Aviso en curso: Flood Advisory

Alt 194 ft 34.68 °N, 90.35 °W | Updated 5 minutes ago

Nublado
Nublado
63 ° F
Sensación térmica 63 ° F
N
12
Viento Variable Viento desde Norte

Hoy
Alta -- | Baja -- ° F
--% Posibilidad de precipitaciones
Ayer
Alta -- | Baja -- ° F
Precip. -- pul
6:14 AM 7:41 PM
Cuarto creciente, 56% visible
Presión 29.82 pul
Visibilidad 7.0 Millas
Nubes Nublado 1000 ft
Punto de rocío 59 ° F
Humedad 88%
Precipitaciones 0.00 pul
Espesor de la nieve No disponible.
UV 2 de una escala de 12
Polen 9.70 de una escala de 12
Calidad del aire No disponible.
Flu Activity No Activity
METAR KUTA 261535Z AUTO 36010KT 7SM OVC010 17/15 A2982 RMK AO2

More Conditions Fewer Conditions

Presión 29.82 pul
Visibilidad 7.0 Millas
Nubes Nublado 1000 ft
Punto de rocío 59 ° F
Humedad 88%
Precipitaciones 0.00 pul
Espesor de la nieve No disponible.
UV 2 de una escala de 12
Polen 9.70 de una escala de 12
Calidad del aire No disponible.
Flu Activity No Activity
METAR KUTA 261535Z AUTO 36010KT 7SM OVC010 17/15 A2982 RMK AO2

More Conditions Fewer Conditions

The full scope of the disaster following a powerful 7.8-magnitude earthquake in Nepal may not come into view for days, but global charities are already sending emergency aid. Click to see how you can help.

10-Day Weather Forecast

Almanac

Astronomía

Apr. 26, 2015 Salida Puesta
Hora real
Crepúsculo civil
Crepúsculo náutico
Crepúsculo astronómico
Luna
Horas de luz
Horas de luz
Tomorrow will be .
, % of the Moon is Illuminated

Extremos de hoy

Máximos del estado Bajos del estado

Community

WunderPhotos

Upload Photos

1,817,043 ¡fotos cargadas!

WunderBlogs® & News

Nearby

Calidad del aire

  Calidad del aire Índice AQ Contaminante
Not available.

Grosos de nieve

Estación Profundido Altura

Actividad de terremotos

Ciudad Distance Mag. Tiempo y dato
Magnitud mínima muestra es 2,5.

Temperaturas de aguas costeras

Lugar Temperatura

Stations

Estaciones meteorológicas cercanas

Ubicación de la estación Temp. Vientos helados Punto de rocío Humedad Viento Precip. Alt Actualizado Tipo
                   
Flood Advisory
Statement as of 9:14 PM CDT en Abril 25, 2015

The Flood Advisory continues for
the Mississippi River at Memphis
* until Tuesday April 28.
* At 09 PM Saturday the stage was 28.5 feet.
* Flood stage is 34.0 feet.
* Forecast... the river will rise to near 28.7 feet Sunday April 26.
* At 29.0 feet... in Arkansas. The evacuation Route from camps south
of Hopefield Chute is cut off. Water is lapping the levee near
sulcer Road west of South Lake. River is touching the levee at Blue
Lake.


Lat... Lon 3539 9025 3539 8995 3533 9005 3513 9004
      3491 9008 3491 9041